Petersburg, AK

11:15 AM AKST on December 27, 2014 (GMT -0900)
Johnson Petersburg | Change Station
CLOSE
Current Station
Airport
Location: Petersburg,
Elevation: 0 ft
Nearby Weather Stations

Elev 0 ft 56.82 °N, 132.97 °W | Updated 19 minutes ago

Mostly Cloudy
Mostly Cloudy
37 °F
Feels Like 35 °F
N
4
Wind Variable Wind from South

Today
High -- | Low -- °F
--% Chance of Precip.
Yesterday
High -- | Low -- °F
Precip. -- in
8:30 AM 3:18 PM
Waxing Crescent, 39% visible
Pressure 30.15 in
Visibility 10.0 miles
Clouds Scattered Clouds 2200 ft
Mostly Cloudy 4000 ft
Windchill 35 °F
Dew Point 30 °F
Humidity 75%
Rainfall 0.00 in
Snow Depth Not available.
UV 0 out of 12
Pollen Not available.
Air Quality Not available.
Flu Activity Not available.
METAR PAPG 271956Z 19003KT 10SM SCT022 BKN040 03/M01 A3015 RMK AO1

More Conditions Fewer Conditions

Pressure 30.15 in
Visibility 10.0 miles
Clouds Scattered Clouds 2200 ft
Mostly Cloudy 4000 ft
Windchill 35 °F
Dew Point 30 °F
Humidity 75%
Rainfall 0.00 in
Snow Depth Not available.
UV 0 out of 12
Pollen Not available.
Air Quality Not available.
Flu Activity Not available.
METAR PAPG 271956Z 19003KT 10SM SCT022 BKN040 03/M01 A3015 RMK AO1

More Conditions Fewer Conditions

10-Day Weather Forecast

Almanac

Astronomy

Dec. 27, 2014 Rise Set
Actual Time
Civil Twilight
Nautical Twilight
Astronomical Twilight
Moon
Length of Visible Light
Length of Day
Tomorrow will be .
, % of the Moon is Illuminated

Today's Extremes

State Highs State Lows

Community

WunderPhotos

Upload Photos

1,781,037 photos uploaded!

WunderBlogs® & News

Nearby

Air Quality

  Air Quality AQ Index Pollutant
Not available.

Snow Depth

Station Depth Elevation

Earthquake Activity

City Distance Mag. Time & Date
Minimum magnitude displayed is 2.5.

Coastal Water Temperatures

Place Temperature

Nearby Weather Stations